createdAt,value
2023-03-23T00:00:15.481Z,100.00
2023-03-23T00:02:44.086Z,100.00
2023-03-23T00:05:11.181Z,100.00
2023-03-23T00:07:37.890Z,100.00
2023-03-23T00:10:04.975Z,100.00
2023-03-23T00:12:36.003Z,100.00
2023-03-23T00:15:09.247Z,100.00
2023-03-23T00:17:36.309Z,100.00
2023-03-23T00:20:06.451Z,100.00
2023-03-23T00:22:38.658Z,100.00
2023-03-23T00:25:06.641Z,100.00
2023-03-23T00:27:33.772Z,100.00
2023-03-23T00:30:01.100Z,100.00
2023-03-23T00:32:28.443Z,100.00
2023-03-23T00:35:01.669Z,100.00
2023-03-23T00:37:28.796Z,100.00
2023-03-23T00:39:58.375Z,100.00
2023-03-23T00:42:26.287Z,100.00
2023-03-23T00:45:01.245Z,100.00
2023-03-23T00:47:28.517Z,100.00
2023-03-23T00:49:57.346Z,100.00
2023-03-23T00:52:24.183Z,100.00
2023-03-23T00:54:51.023Z,100.00
2023-03-23T00:57:18.420Z,100.00
2023-03-23T00:59:45.114Z,100.00
2023-03-23T01:02:11.730Z,100.00
2023-03-23T01:04:41.272Z,100.00
2023-03-23T01:07:09.507Z,100.00
2023-03-23T01:09:37.531Z,100.00
2023-03-23T01:12:04.391Z,100.00
2023-03-23T01:14:31.344Z,100.00
2023-03-23T01:16:57.997Z,100.00
2023-03-23T01:19:24.711Z,100.00
2023-03-23T01:21:51.640Z,100.00
2023-03-23T01:24:18.238Z,100.00
2023-03-23T01:26:45.002Z,100.00
2023-03-23T01:29:12.169Z,100.00
2023-03-23T01:31:38.932Z,100.00
2023-03-23T01:34:05.644Z,100.00
2023-03-23T01:36:33.949Z,100.00
2023-03-23T01:39:03.614Z,100.00
2023-03-23T01:41:30.701Z,100.00
2023-03-23T01:44:08.222Z,100.00
2023-03-23T01:46:36.972Z,100.00
2023-03-23T01:49:10.804Z,100.00
2023-03-23T01:51:43.921Z,100.00
2023-03-23T01:54:15.123Z,100.00
2023-03-23T01:56:48.522Z,100.00
2023-03-23T01:59:16.615Z,100.00
2023-03-23T02:01:46.026Z,100.00
2023-03-23T02:04:15.918Z,100.00
2023-03-23T02:06:42.762Z,100.00
2023-03-23T02:09:10.603Z,100.00
2023-03-23T02:11:37.500Z,100.00
2023-03-23T02:14:04.201Z,100.00
2023-03-23T02:16:57.574Z,100.00
2023-03-23T02:19:42.097Z,100.00
2023-03-23T02:22:30.507Z,100.00
2023-03-23T02:25:25.263Z,100.00
2023-03-23T02:28:26.342Z,100.00
2023-03-23T02:31:12.430Z,100.00
2023-03-23T02:33:58.513Z,100.00
2023-03-23T02:36:44.712Z,100.00
2023-03-23T02:39:23.822Z,100.00
2023-03-23T02:41:59.174Z,100.00
2023-03-23T02:44:31.029Z,100.00
2023-03-23T02:46:58.861Z,100.00
2023-03-23T02:49:28.982Z,100.00
2023-03-23T02:51:59.812Z,100.00
2023-03-23T02:54:28.060Z,100.00
2023-03-23T02:56:55.997Z,100.00
2023-03-23T02:59:22.649Z,100.00
2023-03-23T03:02:05.139Z,100.00
2023-03-23T03:04:35.008Z,100.00
2023-03-23T03:07:31.412Z,100.00
2023-03-23T03:10:08.208Z,100.00
2023-03-23T03:13:20.263Z,99.31
2023-03-23T03:15:57.514Z,97.57
2023-03-23T03:18:33.930Z,95.96
2023-03-23T03:21:08.749Z,93.81
2023-03-23T03:23:38.505Z,92.84
2023-03-23T03:26:07.093Z,91.60
2023-03-23T03:28:34.523Z,90.90
2023-03-23T03:31:04.186Z,89.48
2023-03-23T03:33:32.570Z,87.35
2023-03-23T03:36:03.400Z,88.15
2023-03-23T03:38:30.226Z,89.10
2023-03-23T03:40:57.706Z,88.06
2023-03-23T03:43:24.702Z,89.13
2023-03-23T03:45:51.350Z,91.02
2023-03-23T03:48:18.117Z,90.18
2023-03-23T03:50:44.919Z,89.90
2023-03-23T03:53:11.951Z,88.78
2023-03-23T03:55:39.810Z,86.94
2023-03-23T03:58:08.406Z,87.72
2023-03-23T04:00:35.089Z,87.38
2023-03-23T04:03:02.775Z,87.42
2023-03-23T04:05:32.378Z,87.51
2023-03-23T04:08:09.735Z,86.12
2023-03-23T04:10:36.932Z,87.20
2023-03-23T04:13:05.667Z,86.78
2023-03-23T04:15:32.521Z,86.62
2023-03-23T04:17:59.946Z,85.52
2023-03-23T04:20:32.292Z,86.89
2023-03-23T04:22:59.060Z,84.24
2023-03-23T04:25:25.707Z,83.49
2023-03-23T04:27:55.760Z,84.12
2023-03-23T04:30:24.551Z,84.08
2023-03-23T04:32:53.144Z,83.10
2023-03-23T04:35:21.069Z,84.31
2023-03-23T04:37:47.812Z,83.65
2023-03-23T04:40:15.550Z,83.26
2023-03-23T04:42:46.821Z,82.63
2023-03-23T04:45:22.884Z,81.64
2023-03-23T04:47:54.317Z,80.42
2023-03-23T04:50:25.141Z,80.56
2023-03-23T04:52:52.615Z,78.91
2023-03-23T04:55:20.913Z,78.73
2023-03-23T04:57:48.593Z,78.94
2023-03-23T05:00:17.538Z,77.85
2023-03-23T05:02:46.196Z,77.50
2023-03-23T05:05:14.579Z,77.02
2023-03-23T05:07:42.272Z,77.13
2023-03-23T05:10:11.462Z,77.30
2023-03-23T05:12:38.245Z,76.97
2023-03-23T05:15:06.998Z,76.84
2023-03-23T05:17:34.771Z,76.33
2023-03-23T05:20:01.718Z,76.53
2023-03-23T05:22:29.189Z,76.07
2023-03-23T05:24:55.792Z,75.83
2023-03-23T05:27:22.411Z,75.37
2023-03-23T05:29:52.681Z,75.09
2023-03-23T05:32:20.344Z,74.71
2023-03-23T05:34:47.687Z,74.02
2023-03-23T05:37:14.842Z,74.10
2023-03-23T05:39:41.506Z,73.17
2023-03-23T05:42:08.897Z,74.05
2023-03-23T05:44:35.578Z,74.10
2023-03-23T05:47:02.214Z,73.50
2023-03-23T05:49:28.860Z,74.16
2023-03-23T05:51:55.494Z,73.59
2023-03-23T05:54:22.134Z,74.14
2023-03-23T05:56:50.128Z,73.92
2023-03-23T05:59:16.816Z,73.57
2023-03-23T06:01:43.509Z,74.13
2023-03-23T06:04:18.083Z,73.77
2023-03-23T06:06:44.854Z,73.60
2023-03-23T06:09:12.457Z,72.79
2023-03-23T06:11:39.337Z,71.52
2023-03-23T06:14:05.929Z,70.97
2023-03-23T06:16:32.716Z,70.93
2023-03-23T06:19:01.750Z,69.82
2023-03-23T06:21:29.153Z,69.82
2023-03-23T06:23:57.034Z,69.32
2023-03-23T06:26:29.723Z,68.60
2023-03-23T06:28:56.926Z,67.81
2023-03-23T06:31:23.543Z,66.71
2023-03-23T06:33:50.121Z,65.28
2023-03-23T06:36:17.826Z,64.62
2023-03-23T06:38:44.610Z,62.94
2023-03-23T06:41:12.496Z,63.26
2023-03-23T06:43:40.544Z,62.30
2023-03-23T06:46:07.815Z,62.44
2023-03-23T06:48:34.440Z,61.46
2023-03-23T06:51:01.151Z,61.57
2023-03-23T06:53:27.749Z,61.08
2023-03-23T06:55:54.400Z,61.19
2023-03-23T06:58:22.351Z,61.57
2023-03-23T07:00:48.958Z,61.35
2023-03-23T07:03:15.822Z,61.13
2023-03-23T07:05:42.826Z,61.27
2023-03-23T07:08:09.620Z,60.89
2023-03-23T07:10:36.292Z,60.63
2023-03-23T07:13:03.083Z,60.56
2023-03-23T07:15:29.698Z,59.80
2023-03-23T07:17:56.576Z,58.47
2023-03-23T07:20:23.560Z,58.65
2023-03-23T07:22:50.916Z,59.72
2023-03-23T07:25:18.608Z,60.48
2023-03-23T07:27:46.992Z,60.34
2023-03-23T07:30:15.929Z,60.55
2023-03-23T07:32:42.726Z,60.52
2023-03-23T07:35:10.964Z,61.43
2023-03-23T07:37:37.667Z,61.14
2023-03-23T07:40:15.795Z,61.12
2023-03-23T07:42:44.740Z,60.55
2023-03-23T07:45:13.392Z,56.71
2023-03-23T07:47:40.933Z,52.36
2023-03-23T07:50:09.691Z,48.41
2023-03-23T07:52:37.448Z,46.62
2023-03-23T07:55:06.281Z,46.90
2023-03-23T07:57:37.559Z,51.27
2023-03-23T08:00:10.636Z,52.00
2023-03-23T08:05:09.895Z,56.35
2023-03-23T08:07:37.103Z,58.41
2023-03-23T08:10:03.950Z,59.11
2023-03-23T08:12:30.595Z,60.08
2023-03-23T08:14:57.203Z,61.79
2023-03-23T08:17:23.812Z,62.20
2023-03-23T08:19:53.623Z,62.18
2023-03-23T08:22:20.819Z,61.34
2023-03-23T08:24:47.410Z,60.76
2023-03-23T08:27:14.099Z,59.18
2023-03-23T08:29:41.904Z,55.65
2023-03-23T08:32:08.524Z,49.61
2023-03-23T08:34:35.179Z,47.72
2023-03-23T08:37:01.889Z,46.93
2023-03-23T08:39:29.125Z,45.98
2023-03-23T08:41:55.839Z,48.04
2023-03-23T08:44:22.446Z,48.88
2023-03-23T08:46:49.103Z,47.20
2023-03-23T08:49:15.665Z,47.31
2023-03-23T08:51:43.199Z,48.40
2023-03-23T08:54:10.092Z,48.88
2023-03-23T08:56:36.668Z,46.79
2023-03-23T08:59:03.288Z,45.32
2023-03-23T09:01:29.897Z,49.16
2023-03-23T09:03:56.490Z,50.56
2023-03-23T09:06:23.454Z,52.55
2023-03-23T09:08:51.246Z,52.11
2023-03-23T09:11:17.904Z,52.04
2023-03-23T09:13:44.622Z,52.06
2023-03-23T09:16:11.346Z,52.06
2023-03-23T09:18:38.029Z,53.04
2023-03-23T09:21:04.858Z,55.10
2023-03-23T09:23:46.664Z,56.19
2023-03-23T09:26:13.280Z,57.25
2023-03-23T09:28:39.953Z,56.95
2023-03-23T09:31:06.805Z,57.27
2023-03-23T09:33:37.280Z,56.57
2023-03-23T09:36:15.957Z,56.09
2023-03-23T09:38:42.737Z,55.17
2023-03-23T09:41:38.524Z,54.33
2023-03-23T09:44:14.633Z,54.09
2023-03-23T09:46:52.079Z,54.44
2023-03-23T09:49:50.326Z,54.05
2023-03-23T09:52:19.163Z,54.40
2023-03-23T09:54:54.593Z,54.15
2023-03-23T09:57:36.226Z,53.26
2023-03-23T10:00:20.388Z,53.69
2023-03-23T10:03:12.021Z,54.04
2023-03-23T10:05:46.608Z,53.78
2023-03-23T10:08:15.978Z,54.30
2023-03-23T10:11:02.048Z,54.16
2023-03-23T10:14:06.028Z,52.41
2023-03-23T10:16:42.293Z,52.49
2023-03-23T10:19:14.393Z,51.98
2023-03-23T10:21:47.829Z,51.77
2023-03-23T10:24:18.001Z,52.20
2023-03-23T10:27:14.819Z,52.36
2023-03-23T10:29:49.470Z,51.86
2023-03-23T10:32:20.546Z,50.68
2023-03-23T10:34:47.729Z,51.51
2023-03-23T10:37:20.888Z,50.95
2023-03-23T10:39:56.419Z,50.71
2023-03-23T10:42:26.567Z,50.89
2023-03-23T10:44:54.288Z,52.51
2023-03-23T10:47:20.904Z,52.71
2023-03-23T10:49:54.823Z,53.69
2023-03-23T10:52:36.349Z,53.39
2023-03-23T10:56:28.412Z,51.51
2023-03-23T10:58:59.821Z,48.48
2023-03-23T11:01:37.837Z,46.69
2023-03-23T11:06:52.115Z,43.56
2023-03-23T11:09:23.636Z,43.77
2023-03-23T11:12:02.143Z,43.47
2023-03-23T11:14:35.579Z,45.26
2023-03-23T11:17:15.724Z,47.59
2023-03-23T11:19:46.147Z,49.14
2023-03-23T11:22:23.477Z,48.75
2023-03-23T11:24:57.177Z,48.14
2023-03-23T11:27:32.616Z,47.44
2023-03-23T11:30:11.828Z,46.90
2023-03-23T11:32:46.309Z,47.52
2023-03-23T11:35:23.231Z,47.83
2023-03-23T11:37:56.124Z,48.39
2023-03-23T11:40:28.593Z,48.65
2023-03-23T11:43:11.823Z,48.84
2023-03-23T11:45:43.785Z,48.72
2023-03-23T11:48:23.288Z,48.54
2023-03-23T11:50:56.026Z,48.25
2023-03-23T11:53:37.549Z,49.33
2023-03-23T11:56:17.711Z,48.48
2023-03-23T11:58:49.897Z,48.33
2023-03-23T12:01:28.801Z,48.50
2023-03-23T12:04:09.524Z,48.58
2023-03-23T12:06:47.314Z,49.85
2023-03-23T12:09:27.624Z,49.75
2023-03-23T12:12:13.759Z,50.29
2023-03-23T12:14:51.264Z,50.86
2023-03-23T12:17:32.701Z,51.43
2023-03-23T12:20:23.854Z,52.53
2023-03-23T12:23:07.577Z,53.05
2023-03-23T12:25:59.761Z,53.11
2023-03-23T12:28:41.592Z,53.45
2023-03-23T12:31:22.912Z,52.47
2023-03-23T12:34:00.840Z,52.32
2023-03-23T12:36:42.754Z,52.25
2023-03-23T12:39:48.693Z,52.18
2023-03-23T12:42:27.400Z,52.34
2023-03-23T12:45:02.046Z,52.38
2023-03-23T12:47:45.443Z,52.57
2023-03-23T12:50:21.561Z,52.36
2023-03-23T12:52:59.646Z,51.94
2023-03-23T12:55:36.969Z,52.18
2023-03-23T12:58:09.689Z,51.98
2023-03-23T13:01:00.038Z,52.38
2023-03-23T13:03:39.076Z,52.18
2023-03-23T13:06:16.580Z,52.80
2023-03-23T13:08:53.914Z,53.15
2023-03-23T13:11:29.483Z,53.35
2023-03-23T13:14:05.772Z,53.88
2023-03-23T13:16:42.998Z,53.27
2023-03-23T13:19:20.628Z,52.33
2023-03-23T13:21:57.815Z,51.70
2023-03-23T13:24:31.193Z,51.39
2023-03-23T13:27:02.356Z,51.41
2023-03-23T13:29:33.654Z,51.82
2023-03-23T13:32:15.006Z,52.48
2023-03-23T13:34:50.798Z,52.96
2023-03-23T13:37:28.106Z,52.82
2023-03-23T13:40:00.112Z,52.50
2023-03-23T13:42:36.360Z,52.70
2023-03-23T13:45:23.422Z,53.21
2023-03-23T13:47:53.059Z,54.45
2023-03-23T13:50:34.024Z,55.31
2023-03-23T13:53:05.276Z,55.43
2023-03-23T13:55:45.298Z,56.37
2023-03-23T13:58:25.598Z,55.81
2023-03-23T14:01:13.888Z,55.49
2023-03-23T14:03:45.358Z,55.79
2023-03-23T14:06:21.515Z,55.82
2023-03-23T14:08:54.285Z,55.96
2023-03-23T14:11:27.628Z,56.88
2023-03-23T14:14:06.812Z,57.31
2023-03-23T14:16:41.361Z,58.13
2023-03-23T14:19:21.092Z,58.37
2023-03-23T14:21:57.898Z,58.63
2023-03-23T14:24:29.476Z,58.88
2023-03-23T14:27:11.978Z,58.35
2023-03-23T14:29:41.967Z,58.34
2023-03-23T14:32:18.140Z,59.50
2023-03-23T14:34:51.260Z,60.10
2023-03-23T14:37:24.950Z,58.74
2023-03-23T14:39:58.160Z,57.91
2023-03-23T14:42:33.138Z,57.80
2023-03-23T14:45:05.005Z,58.29
2023-03-23T14:47:37.470Z,57.97
2023-03-23T14:50:10.835Z,58.46
2023-03-23T14:52:43.041Z,57.76
2023-03-23T14:55:16.082Z,58.52
2023-03-23T14:57:46.344Z,58.97
2023-03-23T15:00:24.954Z,59.59
2023-03-23T15:02:57.472Z,61.92
2023-03-23T15:05:34.418Z,62.98
2023-03-23T15:08:12.703Z,62.15
2023-03-23T15:10:43.665Z,62.79
2023-03-23T15:13:16.545Z,62.77
2023-03-23T15:15:46.253Z,63.56
2023-03-23T15:18:33.038Z,63.41
2023-03-23T15:21:13.129Z,63.48
2023-03-23T15:23:48.491Z,63.85
2023-03-23T15:26:34.423Z,63.99
2023-03-23T15:29:15.613Z,64.10
2023-03-23T15:31:58.414Z,63.93
2023-03-23T15:34:40.157Z,64.73
2023-03-23T15:37:21.190Z,64.65
2023-03-23T15:39:55.179Z,63.98
2023-03-23T15:42:31.180Z,64.63
2023-03-23T15:45:07.039Z,65.57
2023-03-23T15:47:41.102Z,66.26
2023-03-23T15:50:16.583Z,67.22
2023-03-23T15:52:47.253Z,66.82
2023-03-23T15:55:27.927Z,67.31
2023-03-23T15:57:59.314Z,67.84
2023-03-23T16:00:31.415Z,68.82
2023-03-23T16:03:04.154Z,68.56
2023-03-23T16:05:33.805Z,68.84
2023-03-23T16:08:04.418Z,69.04
2023-03-23T16:10:36.612Z,69.59
2023-03-23T16:13:07.252Z,69.96
2023-03-23T16:15:37.139Z,69.83
2023-03-23T16:18:07.066Z,70.52
2023-03-23T16:20:36.934Z,71.00
2023-03-23T16:23:06.561Z,71.32
2023-03-23T16:25:39.008Z,71.51
2023-03-23T16:28:08.569Z,72.40
2023-03-23T16:30:38.511Z,72.23
2023-03-23T16:33:08.307Z,72.45
2023-03-23T16:35:38.426Z,72.94
2023-03-23T16:38:09.219Z,73.34
2023-03-23T16:40:42.364Z,74.00
2023-03-23T16:43:12.688Z,74.43
2023-03-23T16:45:44.412Z,74.81
2023-03-23T16:48:16.406Z,75.21
2023-03-23T16:50:47.401Z,75.79
2023-03-23T16:53:17.106Z,76.30
2023-03-23T16:55:49.290Z,76.62
2023-03-23T16:58:19.684Z,76.98
2023-03-23T17:00:52.199Z,77.00
2023-03-23T17:03:23.015Z,77.29
2023-03-23T17:05:54.465Z,77.35
2023-03-23T17:08:24.529Z,77.67
2023-03-23T17:10:56.788Z,77.95
2023-03-23T17:13:28.066Z,78.06
2023-03-23T17:15:58.850Z,77.81
2023-03-23T17:18:29.287Z,78.37
2023-03-23T17:20:59.192Z,78.24
2023-03-23T17:23:28.835Z,78.59
2023-03-23T17:26:01.574Z,78.95
2023-03-23T17:28:31.249Z,79.35
2023-03-23T17:31:00.949Z,79.64
2023-03-23T17:33:30.561Z,79.79
2023-03-23T17:36:00.156Z,80.36
2023-03-23T17:38:29.881Z,80.24
2023-03-23T17:41:04.396Z,80.14
2023-03-23T17:43:35.321Z,79.49
2023-03-23T17:46:04.960Z,78.76
2023-03-23T17:48:34.546Z,78.17
2023-03-23T17:51:04.230Z,77.77
2023-03-23T17:53:35.885Z,77.10
2023-03-23T17:56:09.641Z,76.76
2023-03-23T17:58:39.538Z,75.18
2023-03-23T18:01:09.659Z,74.40
2023-03-23T18:03:40.037Z,74.64
2023-03-23T18:06:11.362Z,74.82
2023-03-23T18:08:41.640Z,74.82
2023-03-23T18:11:14.037Z,74.26
2023-03-23T18:13:43.651Z,74.99
2023-03-23T18:16:13.572Z,74.58
2023-03-23T18:18:43.214Z,74.36
2023-03-23T18:21:13.288Z,74.20
2023-03-23T18:23:52.972Z,74.04
2023-03-23T18:26:31.884Z,74.61
2023-03-23T18:29:01.495Z,73.97
2023-03-23T18:31:31.449Z,74.17
2023-03-23T18:34:01.217Z,74.61
2023-03-23T18:36:31.183Z,74.39
2023-03-23T18:39:01.143Z,73.96
2023-03-23T18:41:33.324Z,73.85
2023-03-23T18:44:02.904Z,73.46
2023-03-23T18:46:32.470Z,73.88
2023-03-23T18:49:02.155Z,74.24
2023-03-23T18:51:31.771Z,74.92
2023-03-23T18:54:01.354Z,75.22
2023-03-23T18:56:33.555Z,75.14
2023-03-23T18:59:03.147Z,75.16
2023-03-23T19:01:32.799Z,75.50
2023-03-23T19:04:06.418Z,75.52
2023-03-23T19:06:37.381Z,75.94
2023-03-23T19:09:07.379Z,75.93
2023-03-23T19:11:39.534Z,76.32
2023-03-23T19:14:09.160Z,76.25
2023-03-23T19:16:38.823Z,76.68
2023-03-23T19:19:10.433Z,76.47
2023-03-23T19:21:43.822Z,76.79
2023-03-23T19:24:16.404Z,76.85
2023-03-23T19:26:49.815Z,77.18
2023-03-23T19:29:26.645Z,77.53
2023-03-23T19:31:57.356Z,78.19
2023-03-23T19:34:28.329Z,78.46
2023-03-23T19:37:05.482Z,78.52
2023-03-23T19:39:36.445Z,78.65
2023-03-23T19:42:09.584Z,78.68
2023-03-23T19:44:39.574Z,78.81
2023-03-23T19:47:09.407Z,78.67
2023-03-23T19:49:39.404Z,78.44
2023-03-23T19:52:12.737Z,78.67
2023-03-23T19:54:43.671Z,78.49
2023-03-23T19:57:16.382Z,79.06
2023-03-23T19:59:47.257Z,79.37
2023-03-23T20:02:17.342Z,79.58
2023-03-23T20:04:47.036Z,80.26
2023-03-23T20:07:16.677Z,79.36
2023-03-23T20:09:46.497Z,79.73
2023-03-23T20:12:21.225Z,80.14
2023-03-23T20:14:50.946Z,80.44
2023-03-23T20:17:20.599Z,80.09
2023-03-23T20:19:50.158Z,80.90
2023-03-23T20:22:19.831Z,80.59
2023-03-23T20:24:49.717Z,80.31
2023-03-23T20:27:21.978Z,80.15
2023-03-23T20:29:52.459Z,80.62
2023-03-23T20:32:22.197Z,80.38
2023-03-23T20:34:51.952Z,80.26
2023-03-23T20:37:24.165Z,80.02
2023-03-23T20:39:53.745Z,80.28
2023-03-23T20:42:26.146Z,80.99
2023-03-23T20:44:56.158Z,80.90
2023-03-23T20:47:25.829Z,80.87
2023-03-23T20:49:55.467Z,80.78
2023-03-23T20:52:26.128Z,81.13
2023-03-23T20:54:56.308Z,81.88
2023-03-23T20:57:28.980Z,82.68
2023-03-23T20:59:58.899Z,82.76
2023-03-23T21:02:30.119Z,82.84
2023-03-23T21:05:04.437Z,83.40
2023-03-23T21:10:09.363Z,84.98
2023-03-23T21:12:41.700Z,86.22
2023-03-23T21:15:11.624Z,87.31
2023-03-23T21:17:41.265Z,88.17
2023-03-23T21:20:12.560Z,88.91
2023-03-23T21:22:42.186Z,89.12
2023-03-23T21:25:12.830Z,89.44
2023-03-23T21:27:45.124Z,90.13
2023-03-23T21:30:14.964Z,90.41
2023-03-23T21:32:44.651Z,91.01
2023-03-23T21:35:14.649Z,90.93
2023-03-23T21:37:44.193Z,91.31
2023-03-23T21:40:17.873Z,91.91
2023-03-23T21:42:51.910Z,92.09
2023-03-23T21:45:21.561Z,91.86
2023-03-23T21:47:57.975Z,92.15
2023-03-23T21:50:27.992Z,93.44
2023-03-23T21:52:57.578Z,94.40
2023-03-23T21:55:29.853Z,95.47
2023-03-23T21:58:03.027Z,95.94
2023-03-23T22:00:32.722Z,95.78
2023-03-23T22:03:02.917Z,95.49
2023-03-23T22:05:32.601Z,95.21
2023-03-23T22:08:02.220Z,95.50
2023-03-23T22:10:31.752Z,96.19
2023-03-23T22:13:03.923Z,97.18
2023-03-23T22:15:33.501Z,97.79
2023-03-23T22:18:03.213Z,97.93
2023-03-23T22:20:33.660Z,96.51
2023-03-23T22:23:03.183Z,96.36
2023-03-23T22:25:36.353Z,96.44
2023-03-23T22:28:09.173Z,96.53
2023-03-23T22:30:38.955Z,97.70
2023-03-23T22:33:08.570Z,98.48
2023-03-23T22:35:38.344Z,99.72
2023-03-23T22:38:07.925Z,100.00
2023-03-23T22:40:38.012Z,100.00
2023-03-23T22:43:10.231Z,100.00
2023-03-23T22:45:39.792Z,100.00
2023-03-23T22:48:09.422Z,100.00
2023-03-23T22:50:39.019Z,100.00
2023-03-23T22:53:08.792Z,100.00
2023-03-23T22:55:38.366Z,100.00
2023-03-23T22:58:11.937Z,100.00
2023-03-23T23:00:42.614Z,100.00
2023-03-23T23:03:12.295Z,100.00
2023-03-23T23:05:44.918Z,100.00
2023-03-23T23:08:17.736Z,100.00
2023-03-23T23:10:49.214Z,100.00
2023-03-23T23:13:22.019Z,100.00
2023-03-23T23:15:54.087Z,100.00
2023-03-23T23:18:24.257Z,100.00
2023-03-23T23:20:55.973Z,100.00
2023-03-23T23:23:26.573Z,99.99
2023-03-23T23:25:57.467Z,98.97
2023-03-23T23:28:30.124Z,98.77
2023-03-23T23:30:59.867Z,97.72
2023-03-23T23:33:29.816Z,96.17
2023-03-23T23:35:59.714Z,94.74
2023-03-23T23:38:29.274Z,94.22
2023-03-23T23:40:58.844Z,92.80
2023-03-23T23:43:31.280Z,92.88
2023-03-23T23:46:00.989Z,92.53
2023-03-23T23:48:30.542Z,92.38
2023-03-23T23:51:00.131Z,92.20
2023-03-23T23:53:31.503Z,92.02
2023-03-23T23:56:04.373Z,92.05
2023-03-23T23:58:36.562Z,92.21
